Time;durP1;ratioP1;P1;durP2;ratioP2;P2;SDS_P1;SDS_P2;PMS_P1;PMS_P2;Temp;Humidity;BMP_temperature;BMP_pressure;BME280_temperature;BME280_humidity;BME280_pressure;Samples;Min_cycle;Max_cycle;Signal;HPM_P1;HPM_P2
2023/08/18 00:00:26;;;;;;;0.10;0.10;;;13.50;56.80;;;;;;5074385;28;20658;-59
2023/08/18 00:02:57;;;;;;;0.10;0.10;;;13.60;56.90;;;;;;5074004;28;20231;-60
2023/08/18 00:05:27;;;;;;;0.10;0.10;;;13.60;56.90;;;;;;5073914;28;20214;-60
2023/08/18 00:07:58;;;;;;;0.10;0.10;;;13.60;56.90;;;;;;5073428;28;20690;-60
2023/08/18 00:10:30;;;;;;;0.10;0.10;;;13.60;56.90;;;;;;5073594;28;20195;-59
2023/08/18 00:13:01;;;;;;;0.10;0.10;;;13.70;57.10;;;;;;5069192;28;20198;-59
2023/08/18 00:15:32;;;;;;;0.10;0.10;;;13.70;57.30;;;;;;5072862;28;20198;-59
2023/08/18 00:18:02;;;;;;;0.10;0.10;;;13.70;57.60;;;;;;5074329;28;20219;-59
2023/08/18 00:20:33;;;;;;;0.10;0.10;;;13.70;57.60;;;;;;5080773;28;20253;-59
2023/08/18 00:23:03;;;;;;;0.10;0.10;;;13.80;57.60;;;;;;5072798;28;20233;-59
2023/08/18 00:25:36;;;;;;;0.05;0.05;;;13.80;57.70;;;;;;5072843;28;20241;-59
2023/08/18 00:28:07;;;;;;;0.10;0.10;;;13.90;57.70;;;;;;5073020;28;20214;-59
2023/08/18 00:30:38;;;;;;;0.10;0.10;;;13.90;57.60;;;;;;5072806;28;20202;-59
2023/08/18 00:33:08;;;;;;;0.10;0.10;;;13.90;57.60;;;;;;5073192;28;20650;-59
2023/08/18 00:35:39;;;;;;;0.10;0.10;;;14.00;57.60;;;;;;5073316;28;20190;-59
2023/08/18 00:38:10;;;;;;;0.10;0.10;;;14.00;57.50;;;;;;5073063;28;20226;-59
2023/08/18 00:40:42;;;;;;;0.10;0.10;;;14.00;57.40;;;;;;5072049;28;20266;-59
2023/08/18 00:43:13;;;;;;;0.10;0.10;;;14.00;57.40;;;;;;5072701;28;20222;-59
2023/08/18 00:45:43;;;;;;;0.10;0.10;;;14.00;57.40;;;;;;5072334;28;20199;-59
2023/08/18 00:48:14;;;;;;;0.10;0.10;;;14.10;57.40;;;;;;5070615;28;20913;-59
2023/08/18 00:50:46;;;;;;;0.10;0.10;;;14.10;57.40;;;;;;5071875;28;20636;-59
2023/08/18 00:53:17;;;;;;;0.10;0.10;;;14.10;57.40;;;;;;5072422;28;20234;-59
2023/08/18 00:55:51;;;;;;;0.10;0.10;;;14.10;57.40;;;;;;5071859;28;20700;-59
2023/08/18 00:58:22;;;;;;;0.10;0.10;;;14.20;57.40;;;;;;5071883;28;20218;-59
2023/08/18 01:00:54;;;;;;;0.10;0.10;;;14.20;57.40;;;;;;5072818;28;20199;-59
2023/08/18 01:03:24;;;;;;;0.10;0.10;;;14.20;57.40;;;;;;5071382;28;20225;-59
2023/08/18 01:05:55;;;;;;;0.10;0.10;;;14.20;57.40;;;;;;5072372;28;20662;-59
2023/08/18 01:08:26;;;;;;;0.10;0.10;;;14.30;57.50;;;;;;5071364;28;20218;-59
2023/08/18 01:11:08;;;;;;;0.10;0.10;;;14.30;57.40;;;;;;5073185;28;20199;-59
2023/08/18 01:13:45;;;;;;;0.10;0.10;;;14.30;57.40;;;;;;5072169;28;20186;-59
2023/08/18 01:16:23;;;;;;;0.10;0.10;;;14.30;57.40;;;;;;5072131;28;20202;-59
2023/08/18 01:18:55;;;;;;;0.00;0.00;;;14.40;57.40;;;;;;5072261;28;20191;-59
2023/08/18 01:21:27;;;;;;;0.05;0.05;;;14.30;57.40;;;;;;5072506;28;20249;-59
2023/08/18 01:24:05;;;;;;;0.10;0.10;;;14.40;57.40;;;;;;5071196;28;20542;-59
2023/08/18 01:26:35;;;;;;;0.05;0.05;;;14.40;57.50;;;;;;5072066;28;20649;-60
2023/08/18 01:29:06;;;;;;;0.10;0.10;;;14.40;57.40;;;;;;5072007;28;20191;-59
2023/08/18 01:31:40;;;;;;;0.10;0.10;;;14.40;57.50;;;;;;5072016;28;20371;-59
2023/08/18 01:34:15;;;;;;;0.10;0.10;;;14.50;57.60;;;;;;5071481;28;20191;-59
2023/08/18 01:36:46;;;;;;;0.10;0.10;;;14.50;57.60;;;;;;5071475;28;20576;-59
2023/08/18 01:39:20;;;;;;;0.10;0.10;;;14.50;57.60;;;;;;5080389;28;20186;-59
2023/08/18 01:41:51;;;;;;;0.10;0.10;;;14.60;57.60;;;;;;5091966;28;20645;-59
2023/08/18 01:44:22;;;;;;;0.10;0.10;;;14.60;57.60;;;;;;5092188;28;20197;-59
2023/08/18 01:46:53;;;;;;;0.10;0.10;;;14.60;57.50;;;;;;5091474;28;20296;-60
2023/08/18 01:49:23;;;;;;;0.10;0.10;;;14.60;57.50;;;;;;5091036;28;20642;-60
2023/08/18 01:51:54;;;;;;;0.10;0.10;;;14.70;57.50;;;;;;5071217;28;20461;-60
2023/08/18 01:54:27;;;;;;;0.10;0.10;;;14.70;57.50;;;;;;5070752;28;20203;-60
2023/08/18 01:56:57;;;;;;;0.10;0.10;;;14.70;57.40;;;;;;5071069;28;20624;-60
2023/08/18 01:59:28;;;;;;;0.10;0.10;;;14.80;57.40;;;;;;5071097;28;20432;-59
2023/08/18 02:01:59;;;;;;;0.10;0.10;;;14.80;57.40;;;;;;5071040;28;20214;-60
2023/08/18 02:04:29;;;;;;;0.00;0.00;;;14.80;57.40;;;;;;5070324;28;20194;-59
2023/08/18 02:07:00;;;;;;;0.10;0.10;;;14.80;57.30;;;;;;5071529;28;20223;-60
2023/08/18 02:09:32;;;;;;;0.10;0.10;;;14.80;57.30;;;;;;5071465;28;20187;-59
2023/08/18 02:12:03;;;;;;;0.10;0.10;;;14.90;57.20;;;;;;5071985;28;20206;-60
2023/08/18 02:14:34;;;;;;;0.10;0.10;;;14.90;57.20;;;;;;5071716;28;20195;-59
2023/08/18 02:17:05;;;;;;;0.10;0.10;;;14.90;57.10;;;;;;5070956;28;20214;-60
2023/08/18 02:19:35;;;;;;;0.00;0.00;;;14.90;57.10;;;;;;5079503;28;20229;-60
2023/08/18 02:22:06;;;;;;;0.10;0.10;;;15.00;57.10;;;;;;5091127;28;20225;-59
2023/08/18 02:24:38;;;;;;;0.05;0.05;;;15.00;56.90;;;;;;5074336;28;20578;-59
2023/08/18 02:27:09;;;;;;;0.10;0.10;;;15.00;56.90;;;;;;5069807;28;20210;-60
2023/08/18 02:29:40;;;;;;;0.10;0.10;;;15.00;56.90;;;;;;5079286;28;20217;-60
2023/08/18 02:32:10;;;;;;;0.10;0.10;;;15.10;56.90;;;;;;5091127;28;20611;-60
2023/08/18 02:34:41;;;;;;;0.10;0.10;;;15.10;56.90;;;;;;5091239;28;20230;-60
2023/08/18 02:37:12;;;;;;;0.10;0.10;;;15.20;56.90;;;;;;5090729;28;20631;-60
2023/08/18 02:39:44;;;;;;;0.10;0.10;;;15.20;56.90;;;;;;5089866;28;20390;-60
2023/08/18 02:42:15;;;;;;;0.10;0.10;;;15.20;56.90;;;;;;5091453;28;20218;-60
2023/08/18 02:44:46;;;;;;;0.10;0.10;;;15.20;56.90;;;;;;5069948;28;20226;-59
2023/08/18 02:47:16;;;;;;;0.10;0.10;;;15.30;56.90;;;;;;5070049;28;20214;-59
2023/08/18 02:49:47;;;;;;;0.10;0.10;;;15.30;56.90;;;;;;5070220;28;20651;-60
2023/08/18 02:52:18;;;;;;;0.00;0.00;;;15.30;56.80;;;;;;5071479;28;20654;-60
2023/08/18 02:54:50;;;;;;;0.10;0.10;;;15.30;56.90;;;;;;5069285;28;20195;-59
2023/08/18 02:57:21;;;;;;;0.10;0.10;;;15.40;56.90;;;;;;5070651;28;20295;-60
2023/08/18 02:59:52;;;;;;;0.10;0.10;;;15.40;56.90;;;;;;5070842;28;20662;-60
2023/08/18 03:02:23;;;;;;;0.10;0.10;;;15.40;56.80;;;;;;5070400;28;20503;-60
2023/08/18 03:04:53;;;;;;;0.05;0.05;;;15.50;56.80;;;;;;5070413;28;20240;-60
2023/08/18 03:07:24;;;;;;;0.10;0.10;;;15.50;56.80;;;;;;5070318;28;20702;-60
2023/08/18 03:09:56;;;;;;;0.05;0.05;;;15.60;56.90;;;;;;5070786;28;20190;-60
2023/08/18 03:12:27;;;;;;;0.10;0.10;;;15.60;56.80;;;;;;5070111;28;20670;-60
2023/08/18 03:14:58;;;;;;;0.10;0.10;;;15.60;56.80;;;;;;5070240;28;20183;-60
2023/08/18 03:17:29;;;;;;;0.10;0.10;;;15.60;56.70;;;;;;5072300;28;20211;-60
2023/08/18 03:19:59;;;;;;;0.10;0.10;;;15.70;56.80;;;;;;5073762;28;20394;-60
2023/08/18 03:22:32;;;;;;;0.10;0.10;;;15.70;56.80;;;;;;5074254;28;20221;-60
2023/08/18 03:25:04;;;;;;;0.10;0.10;;;15.80;56.70;;;;;;5063254;28;20191;-60
2023/08/18 03:27:36;;;;;;;0.10;0.10;;;15.80;56.70;;;;;;5074021;28;20221;-60
2023/08/18 03:30:07;;;;;;;0.00;0.00;;;15.90;56.70;;;;;;5074592;28;20198;-60
2023/08/18 03:32:37;;;;;;;0.00;0.00;;;15.90;56.70;;;;;;5074856;28;20566;-60
2023/08/18 03:35:09;;;;;;;0.10;0.10;;;15.90;56.60;;;;;;5073845;28;20205;-60
2023/08/18 03:37:39;;;;;;;0.00;0.00;;;16.00;56.60;;;;;;5074609;28;20218;-60
2023/08/18 03:40:13;;;;;;;0.10;0.10;;;16.00;56.50;;;;;;5074107;28;20191;-60
2023/08/18 03:42:44;;;;;;;0.10;0.10;;;16.00;56.50;;;;;;5074428;28;20628;-60
2023/08/18 03:45:14;;;;;;;0.10;0.10;;;16.00;56.50;;;;;;5073600;28;20650;-60
2023/08/18 03:47:45;;;;;;;0.10;0.10;;;16.10;56.40;;;;;;5073480;28;20230;-60
2023/08/18 03:50:16;;;;;;;0.10;0.10;;;16.10;56.40;;;;;;5073600;28;20195;-60
2023/08/18 03:52:46;;;;;;;0.05;0.05;;;16.10;56.40;;;;;;5074385;28;20195;-61
2023/08/18 03:55:20;;;;;;;0.00;0.00;;;16.20;56.40;;;;;;5074026;28;20602;-60
2023/08/18 03:57:50;;;;;;;0.05;0.05;;;16.20;56.40;;;;;;5073587;28;20215;-60
2023/08/18 04:00:21;;;;;;;0.10;0.10;;;16.20;56.30;;;;;;5072435;28;20207;-60
2023/08/18 04:02:52;;;;;;;0.10;0.10;;;16.30;56.30;;;;;;5073614;28;20223;-59
2023/08/18 04:05:23;;;;;;;0.00;0.00;;;16.30;56.20;;;;;;5073976;28;20279;-60
2023/08/18 04:07:54;;;;;;;0.10;0.10;;;16.30;56.10;;;;;;5072993;28;20261;-60
2023/08/18 04:10:27;;;;;;;0.00;0.00;;;16.40;56.10;;;;;;5073908;28;20403;-60
2023/08/18 04:12:57;;;;;;;0.10;0.10;;;16.40;56.00;;;;;;5073582;28;20544;-60
2023/08/18 04:15:28;;;;;;;0.00;0.00;;;16.40;56.00;;;;;;5073203;28;20194;-60
2023/08/18 04:17:58;;;;;;;0.10;0.10;;;16.50;56.00;;;;;;5073688;28;20230;-60
2023/08/18 04:20:29;;;;;;;0.10;0.10;;;16.50;56.00;;;;;;5072422;28;20207;-60
2023/08/18 04:23:00;;;;;;;0.10;0.10;;;16.50;56.00;;;;;;5073662;28;20219;-60
2023/08/18 04:25:32;;;;;;;0.10;0.10;;;16.50;55.90;;;;;;5073178;28;20260;-60
2023/08/18 04:28:03;;;;;;;0.10;0.10;;;16.60;55.90;;;;;;5071810;28;20245;-60
2023/08/18 04:30:33;;;;;;;0.10;0.10;;;16.60;55.80;;;;;;5081655;28;20190;-60
2023/08/18 04:33:04;;;;;;;0.00;0.00;;;16.60;55.80;;;;;;5093722;28;20288;-60
2023/08/18 04:35:35;;;;;;;0.00;0.00;;;16.60;55.70;;;;;;5093292;28;20190;-60
2023/08/18 04:38:05;;;;;;;0.10;0.10;;;16.70;55.80;;;;;;5093000;28;20218;-60
2023/08/18 04:40:38;;;;;;;0.10;0.10;;;16.70;55.80;;;;;;5086979;28;20187;-60
2023/08/18 04:43:09;;;;;;;0.10;0.10;;;16.70;55.80;;;;;;5072307;28;20538;-60
2023/08/18 04:45:39;;;;;;;0.10;0.10;;;16.80;55.70;;;;;;5075491;28;20567;-61
2023/08/18 04:48:10;;;;;;;0.10;0.10;;;16.80;55.70;;;;;;5052869;28;20273;-61
2023/08/18 04:50:41;;;;;;;0.10;0.10;;;16.80;55.70;;;;;;5061458;28;20584;-61
2023/08/18 04:53:11;;;;;;;0.10;0.10;;;16.80;55.60;;;;;;5072838;28;20199;-61
2023/08/18 04:55:44;;;;;;;0.10;0.10;;;16.80;55.60;;;;;;5072473;28;20256;-61
2023/08/18 04:58:15;;;;;;;0.10;0.10;;;16.90;55.60;;;;;;5072688;28;20219;-60
2023/08/18 05:00:46;;;;;;;0.10;0.10;;;16.90;55.60;;;;;;5072414;28;20195;-61
2023/08/18 05:03:16;;;;;;;0.10;0.10;;;16.90;55.60;;;;;;5073139;28;20223;-61
2023/08/18 05:06:02;;;;;;;0.10;0.10;;;16.90;55.50;;;;;;5071743;28;20195;-61
2023/08/18 05:08:33;;;;;;;0.08;0.08;;;16.90;55.60;;;;;;5072428;28;20206;-61
2023/08/18 05:11:10;;;;;;;0.10;0.10;;;16.90;55.50;;;;;;5072439;28;20659;-61
2023/08/18 05:13:42;;;;;;;0.00;0.00;;;17.00;55.50;;;;;;5072535;28;20206;-61
2023/08/18 05:16:13;;;;;;;0.10;0.10;;;17.00;55.50;;;;;;5072244;28;20194;-60
2023/08/18 05:18:43;;;;;;;0.10;0.10;;;17.00;55.50;;;;;;5071694;28;20241;-60
2023/08/18 05:21:14;;;;;;;0.00;0.00;;;17.00;56.10;;;;;;5071898;28;20195;-61
2023/08/18 05:23:45;;;;;;;0.00;0.00;;;17.00;55.50;;;;;;5071182;28;20234;-60
2023/08/18 05:26:18;;;;;;;0.10;0.10;;;17.00;55.40;;;;;;5072289;28;20617;-61
2023/08/18 05:28:49;;;;;;;0.10;0.10;;;17.00;55.50;;;;;;5071887;28;20217;-60
2023/08/18 05:31:20;;;;;;;0.00;0.00;;;17.00;55.40;;;;;;5071377;28;20226;-61
2023/08/18 05:33:50;;;;;;;0.10;0.10;;;17.00;55.40;;;;;;5070892;28;20274;-61
2023/08/18 05:36:21;;;;;;;0.03;0.03;;;17.00;55.40;;;;;;5071815;28;20194;-61
2023/08/18 05:38:52;;;;;;;0.00;0.00;;;17.10;55.50;;;;;;5071168;28;20199;-61
2023/08/18 05:41:24;;;;;;;0.05;0.05;;;17.10;55.50;;;;;;5071350;28;20202;-60
2023/08/18 05:43:55;;;;;;;0.00;0.00;;;17.10;55.40;;;;;;5071067;28;20401;-61
2023/08/18 05:46:25;;;;;;;0.00;0.00;;;17.10;55.40;;;;;;5070953;28;20191;-61
2023/08/18 05:48:56;;;;;;;0.00;0.00;;;17.10;55.30;;;;;;5071397;28;20195;-60
2023/08/18 05:51:27;;;;;;;0.00;0.00;;;17.10;55.40;;;;;;5071081;28;20202;-60
2023/08/18 05:53:57;;;;;;;0.00;0.00;;;17.10;55.40;;;;;;5070975;28;20199;-60
2023/08/18 05:56:30;;;;;;;0.10;0.10;;;17.10;55.40;;;;;;5070482;28;20631;-61
2023/08/18 05:59:02;;;;;;;0.10;0.10;;;17.10;55.40;;;;;;5071426;28;20720;-61
2023/08/18 06:01:32;;;;;;;0.10;0.10;;;17.10;55.40;;;;;;5083406;28;20193;-61
2023/08/18 06:04:03;;;;;;;0.10;0.10;;;17.10;55.30;;;;;;5091095;28;20590;-61
2023/08/18 06:06:34;;;;;;;0.08;0.08;;;17.10;55.20;;;;;;5079022;28;20209;-61
2023/08/18 06:09:04;;;;;;;0.10;0.10;;;17.10;55.20;;;;;;5071668;28;20279;-60
2023/08/18 06:11:37;;;;;;;0.03;0.03;;;17.10;55.10;;;;;;5071242;28;20270;-61
2023/08/18 06:14:08;;;;;;;0.10;0.10;;;17.10;55.10;;;;;;5070493;28;20195;-61
2023/08/18 06:16:38;;;;;;;0.00;0.00;;;17.10;55.00;;;;;;5071539;28;20268;-61
2023/08/18 06:19:09;;;;;;;0.10;0.10;;;17.10;54.90;;;;;;5071025;28;20191;-61
2023/08/18 06:21:40;;;;;;;0.10;0.10;;;17.10;54.90;;;;;;5071601;28;20240;-61
2023/08/18 06:24:11;;;;;;;0.10;0.10;;;17.10;54.90;;;;;;5071479;28;20230;-60
2023/08/18 06:26:43;;;;;;;0.10;0.10;;;17.00;54.80;;;;;;5070975;28;20237;-61
2023/08/18 06:29:14;;;;;;;0.10;0.10;;;17.00;54.80;;;;;;5070191;28;20606;-61
2023/08/18 06:31:44;;;;;;;0.00;0.00;;;17.00;54.80;;;;;;5070285;28;20187;-61
2023/08/18 06:34:15;;;;;;;0.10;0.10;;;17.00;54.80;;;;;;5071603;28;20195;-61
2023/08/18 06:36:46;;;;;;;0.10;0.10;;;17.00;54.70;;;;;;5070783;28;20214;-61
2023/08/18 06:39:16;;;;;;;0.10;0.10;;;17.00;54.70;;;;;;5070419;28;20191;-61
2023/08/18 06:41:49;;;;;;;0.05;0.05;;;17.00;54.60;;;;;;5070166;28;20187;-61
2023/08/18 06:44:19;;;;;;;0.10;0.10;;;17.00;54.70;;;;;;5051308;28;20223;-61
2023/08/18 06:46:50;;;;;;;0.10;0.10;;;17.00;54.60;;;;;;5062338;28;20210;-61
2023/08/18 06:49:21;;;;;;;0.00;0.00;;;17.00;54.60;;;;;;5070878;28;20651;-61
2023/08/18 06:51:52;;;;;;;0.00;0.00;;;16.90;54.50;;;;;;5073184;28;20191;-61
2023/08/18 06:54:22;;;;;;;0.00;0.00;;;16.90;54.50;;;;;;5075031;28;20202;-61
2023/08/18 06:56:53;;;;;;;0.00;0.00;;;16.90;54.50;;;;;;5074566;28;20610;-61
2023/08/18 06:59:24;;;;;;;0.10;0.10;;;16.90;54.40;;;;;;5074589;28;20195;-61
2023/08/18 07:01:55;;;;;;;0.00;0.00;;;16.90;54.40;;;;;;5075835;28;20226;-61
2023/08/18 07:04:25;;;;;;;0.10;0.10;;;16.80;54.40;;;;;;5074744;28;20237;-61
2023/08/18 07:06:56;;;;;;;0.10;0.10;;;16.80;54.40;;;;;;5075025;28;20634;-61
2023/08/18 07:09:27;;;;;;;0.05;0.05;;;16.80;54.30;;;;;;5074126;28;20187;-61
2023/08/18 07:12:00;;;;;;;0.00;0.00;;;16.80;54.40;;;;;;5075155;28;20197;-61
2023/08/18 07:14:30;;;;;;;0.10;0.10;;;16.80;54.40;;;;;;5074873;28;20613;-61
2023/08/18 07:17:01;;;;;;;0.10;0.10;;;16.70;54.30;;;;;;5074408;28;20214;-61
2023/08/18 07:19:32;;;;;;;0.10;0.10;;;16.70;54.40;;;;;;5074027;28;20226;-61
2023/08/18 07:22:03;;;;;;;0.10;0.10;;;16.70;54.40;;;;;;5074175;28;20194;-61
2023/08/18 07:24:34;;;;;;;0.10;0.10;;;16.70;54.40;;;;;;5074770;28;20226;-61
2023/08/18 07:27:07;;;;;;;0.10;0.10;;;16.70;54.30;;;;;;5074579;28;20243;-61
2023/08/18 07:29:37;;;;;;;0.10;0.10;;;16.60;54.30;;;;;;5074085;28;20313;-61
2023/08/18 07:32:08;;;;;;;0.10;0.10;;;16.60;54.30;;;;;;5073944;28;20571;-59
2023/08/18 07:34:39;;;;;;;0.10;0.10;;;16.60;54.30;;;;;;5073532;28;20218;-59
2023/08/18 07:37:10;;;;;;;0.00;0.00;;;16.60;54.30;;;;;;5071484;28;20215;-61
2023/08/18 07:39:41;;;;;;;0.10;0.10;;;16.60;54.30;;;;;;5073112;28;20195;-61
2023/08/18 07:42:14;;;;;;;0.08;0.08;;;16.60;54.30;;;;;;5074173;28;20238;-61
2023/08/18 07:44:44;;;;;;;0.10;0.10;;;16.50;54.30;;;;;;5074227;28;20226;-61
2023/08/18 07:47:15;;;;;;;0.10;0.10;;;16.50;54.30;;;;;;5074415;28;20223;-61
2023/08/18 07:49:46;;;;;;;0.10;0.10;;;16.50;54.30;;;;;;5074065;28;20591;-61
2023/08/18 07:52:16;;;;;;;0.08;0.08;;;16.50;54.30;;;;;;5074890;28;20233;-61
2023/08/18 07:54:47;;;;;;;0.00;0.00;;;16.50;54.30;;;;;;5074138;28;20252;-61
2023/08/18 07:57:19;;;;;;;0.10;0.10;;;16.50;54.30;;;;;;5073672;28;20214;-61
2023/08/18 07:59:50;;;;;;;0.10;0.10;;;16.40;54.30;;;;;;5073566;28;20195;-61
2023/08/18 08:02:21;;;;;;;0.00;0.00;;;16.40;54.30;;;;;;5073388;28;20195;-61
2023/08/18 08:04:53;;;;;;;0.10;0.10;;;16.40;54.30;;;;;;5072576;28;20690;-61
2023/08/18 08:07:24;;;;;;;0.10;0.10;;;16.40;54.30;;;;;;5074173;28;20284;-61
2023/08/18 08:09:56;;;;;;;0.08;0.08;;;16.40;54.30;;;;;;5073755;28;20245;-57
2023/08/18 08:12:29;;;;;;;0.10;0.10;;;16.40;54.30;;;;;;5073252;28;20187;-61
2023/08/18 08:15:00;;;;;;;0.10;0.10;;;16.30;53.80;;;;;;5073845;28;20609;-61
2023/08/18 08:17:31;;;;;;;0.00;0.00;;;16.30;53.40;;;;;;5073176;28;20215;-61
2023/08/18 08:20:03;;;;;;;0.10;0.10;;;16.30;53.30;;;;;;5073303;28;20286;-61
2023/08/18 08:22:34;;;;;;;0.10;0.10;;;16.30;53.30;;;;;;5073775;28;20654;-61
2023/08/18 08:25:05;;;;;;;0.10;0.10;;;16.20;53.30;;;;;;5053486;28;20280;-61
2023/08/18 08:27:37;;;;;;;0.10;0.10;;;16.20;53.30;;;;;;5069890;28;20239;-61
2023/08/18 08:30:10;;;;;;;0.10;0.10;;;16.20;53.40;;;;;;5073769;28;20194;-61
2023/08/18 08:32:41;;;;;;;0.00;0.00;;;16.20;53.40;;;;;;5073451;28;20970;-61
2023/08/18 08:35:12;;;;;;;0.05;0.05;;;16.20;53.40;;;;;;5073364;28;20662;-61
2023/08/18 08:37:43;;;;;;;0.05;0.05;;;16.20;53.50;;;;;;5073271;28;20226;-61
2023/08/18 08:40:20;;;;;;;0.10;0.10;;;16.10;53.50;;;;;;5073441;28;20238;-61
2023/08/18 08:42:53;;;;;;;0.10;0.10;;;16.10;53.50;;;;;;5073086;28;20233;-61
2023/08/18 08:45:25;;;;;;;0.03;0.03;;;16.10;53.50;;;;;;5073323;28;20272;-61
2023/08/18 08:47:58;;;;;;;0.10;0.10;;;16.10;53.60;;;;;;5073385;28;20305;-61
2023/08/18 08:50:32;;;;;;;0.10;0.10;;;16.10;53.60;;;;;;5072812;28;20237;-61
2023/08/18 08:53:03;;;;;;;0.10;0.10;;;16.10;53.60;;;;;;5073753;28;20206;-61
2023/08/18 08:55:37;;;;;;;0.10;0.10;;;16.10;53.60;;;;;;5073245;28;20218;-60
2023/08/18 08:58:11;;;;;;;0.10;0.10;;;16.10;53.60;;;;;;5072979;28;20219;-61
2023/08/18 09:00:41;;;;;;;0.10;0.10;;;16.10;53.60;;;;;;5073005;28;20585;-61
2023/08/18 09:03:13;;;;;;;0.10;0.10;;;16.00;53.60;;;;;;5072440;28;20207;-61
2023/08/18 09:05:44;;;;;;;0.05;0.05;;;16.00;53.60;;;;;;5072480;28;20229;-61
2023/08/18 09:08:15;;;;;;;0.05;0.05;;;16.00;53.60;;;;;;5073032;28;20226;-61
2023/08/18 09:10:46;;;;;;;0.10;0.10;;;16.00;53.70;;;;;;5073052;28;20203;-61
2023/08/18 09:13:18;;;;;;;0.00;0.00;;;16.00;53.70;;;;;;5072908;28;20199;-61
2023/08/18 09:15:49;;;;;;;0.10;0.10;;;16.00;54.30;;;;;;5072761;28;20191;-61
2023/08/18 09:18:20;;;;;;;0.10;0.10;;;15.90;53.70;;;;;;5072267;28;20223;-61
2023/08/18 09:20:51;;;;;;;0.10;0.10;;;15.90;53.70;;;;;;5072562;28;20195;-61
2023/08/18 09:23:22;;;;;;;0.10;0.10;;;15.90;53.70;;;;;;5072460;28;20206;-61
2023/08/18 09:25:54;;;;;;;0.10;0.10;;;16.00;53.80;;;;;;5072212;28;20316;-61
2023/08/18 09:28:28;;;;;;;0.10;0.10;;;15.90;53.70;;;;;;5072261;28;20222;-60
2023/08/18 09:31:00;;;;;;;0.10;0.10;;;15.90;53.80;;;;;;5072726;28;20230;-60
2023/08/18 09:33:31;;;;;;;0.00;0.00;;;15.90;53.70;;;;;;5069260;28;20635;-59
2023/08/18 09:36:03;;;;;;;0.10;0.10;;;15.90;53.80;;;;;;5071452;28;20191;-60
2023/08/18 09:38:42;;;;;;;0.10;0.10;;;15.90;53.80;;;;;;5071889;28;20213;-59
2023/08/18 09:41:13;;;;;;;0.00;0.00;;;15.90;53.80;;;;;;5072193;28;20237;-59
2023/08/18 09:43:45;;;;;;;0.10;0.10;;;15.80;53.80;;;;;;5071681;28;20194;-59
2023/08/18 09:46:17;;;;;;;0.10;0.10;;;15.80;53.80;;;;;;5071761;28;20555;-59
2023/08/18 09:48:49;;;;;;;0.10;0.10;;;15.80;53.80;;;;;;5070303;28;20187;-59
2023/08/18 09:51:24;;;;;;;0.10;0.10;;;15.80;53.80;;;;;;5071370;28;20234;-59
2023/08/18 09:54:01;;;;;;;0.10;0.10;;;15.80;53.80;;;;;;5070535;28;20194;-59
2023/08/18 09:56:34;;;;;;;0.10;0.10;;;15.80;53.80;;;;;;5071495;28;20202;-59
2023/08/18 09:59:14;;;;;;;0.10;0.10;;;15.80;53.80;;;;;;5071189;28;20198;-59
2023/08/18 10:01:46;;;;;;;0.10;0.10;;;15.70;53.80;;;;;;5071167;28;20561;-59
2023/08/18 10:04:17;;;;;;;0.10;0.10;;;15.70;53.80;;;;;;5070969;28;20622;-59
2023/08/18 10:06:49;;;;;;;0.10;0.10;;;15.70;53.80;;;;;;5069352;28;20226;-59
2023/08/18 10:09:21;;;;;;;0.00;0.00;;;15.70;53.90;;;;;;5071927;28;20198;-59
2023/08/18 10:11:52;;;;;;;0.10;0.10;;;15.70;53.80;;;;;;5071296;28;20785;-59
2023/08/18 10:14:27;;;;;;;0.08;0.08;;;15.70;53.80;;;;;;5072272;28;20194;-59
2023/08/18 10:17:00;;;;;;;0.10;0.10;;;15.70;53.80;;;;;;5069657;28;20218;-59
2023/08/18 10:19:54;;;;;;;0.10;0.10;;;15.70;53.80;;;;;;5070195;28;20195;-59
2023/08/18 10:22:28;;;;;;;0.10;0.10;;;15.70;53.90;;;;;;5070186;28;20226;-59
2023/08/18 10:24:59;;;;;;;0.10;0.10;;;15.60;53.80;;;;;;5070900;28;20219;-59
2023/08/18 10:27:40;;;;;;;0.10;0.10;;;15.70;53.90;;;;;;5070641;28;20221;-59
2023/08/18 10:30:32;;;;;;;0.10;0.10;;;15.60;53.80;;;;;;5069445;28;20191;-59
2023/08/18 10:33:08;;;;;;;0.10;0.10;;;15.60;53.80;;;;;;5070273;28;20260;-59
2023/08/18 10:35:41;;;;;;;0.10;0.10;;;15.60;53.80;;;;;;5070065;28;20221;-59
2023/08/18 10:38:14;;;;;;;0.10;0.10;;;15.60;53.80;;;;;;5071835;28;20215;-59
2023/08/18 10:40:44;;;;;;;0.10;0.10;;;15.60;53.80;;;;;;5090710;28;20194;-59
2023/08/18 10:43:16;;;;;;;0.10;0.10;;;15.50;53.80;;;;;;5090551;28;20196;-59
2023/08/18 10:45:53;;;;;;;0.10;0.10;;;15.60;53.90;;;;;;5090055;28;20229;-59
2023/08/18 10:48:24;;;;;;;0.10;0.10;;;15.60;53.90;;;;;;5090654;28;20217;-59
2023/08/18 10:50:54;;;;;;;0.10;0.10;;;15.50;53.80;;;;;;5090902;28;20315;-59
2023/08/18 10:53:25;;;;;;;0.10;0.10;;;15.50;53.80;;;;;;5080071;28;20195;-59
2023/08/18 10:55:56;;;;;;;0.10;0.10;;;15.50;53.80;;;;;;5070872;28;20202;-59
2023/08/18 10:58:26;;;;;;;0.10;0.10;;;15.50;53.80;;;;;;5070571;28;20219;-59
2023/08/18 11:00:59;;;;;;;0.10;0.10;;;15.50;53.80;;;;;;5070144;28;20201;-59
2023/08/18 11:03:31;;;;;;;0.10;0.10;;;15.50;53.90;;;;;;5071012;28;20198;-59
2023/08/18 11:06:02;;;;;;;0.08;0.08;;;15.40;53.80;;;;;;5070798;28;20226;-59
2023/08/18 11:08:33;;;;;;;0.10;0.10;;;15.40;53.80;;;;;;5070872;28;20214;-59
2023/08/18 11:11:03;;;;;;;0.10;0.10;;;15.40;53.80;;;;;;5070875;28;20650;-59
2023/08/18 11:13:34;;;;;;;0.10;0.10;;;15.40;53.80;;;;;;5069930;28;20206;-59
2023/08/18 11:16:07;;;;;;;0.10;0.10;;;15.40;53.90;;;;;;5070508;28;20198;-59
2023/08/18 11:18:37;;;;;;;0.10;0.10;;;15.40;53.80;;;;;;5070321;28;20222;-59
2023/08/18 11:21:08;;;;;;;0.10;0.10;;;15.40;53.80;;;;;;5070495;28;20202;-59
2023/08/18 11:23:38;;;;;;;0.10;0.10;;;15.40;53.90;;;;;;5070551;28;20587;-59
2023/08/18 11:26:09;;;;;;;0.10;0.10;;;15.30;53.80;;;;;;5070407;28;20241;-59
2023/08/18 11:28:40;;;;;;;0.10;0.10;;;15.40;53.80;;;;;;5070298;28;20215;-59
2023/08/18 11:31:16;;;;;;;0.10;0.10;;;15.40;53.90;;;;;;5069380;28;20236;-59
2023/08/18 11:33:46;;;;;;;0.05;0.05;;;15.30;53.80;;;;;;5070555;28;20638;-59
2023/08/18 11:36:17;;;;;;;0.10;0.10;;;15.30;53.80;;;;;;5069491;28;20194;-59
2023/08/18 11:38:47;;;;;;;0.10;0.10;;;15.30;53.80;;;;;;5071824;28;20195;-60
2023/08/18 11:41:18;;;;;;;0.10;0.10;;;15.30;53.80;;;;;;5073230;28;20206;-59
2023/08/18 11:43:49;;;;;;;0.10;0.10;;;15.20;53.80;;;;;;5073300;28;20203;-59
2023/08/18 11:46:22;;;;;;;0.10;0.10;;;15.20;53.80;;;;;;5073420;28;20477;-59
2023/08/18 11:48:54;;;;;;;0.00;0.00;;;15.20;53.70;;;;;;5074433;28;20195;-59
2023/08/18 11:51:25;;;;;;;0.10;0.10;;;15.20;53.80;;;;;;5073958;28;20230;-58
2023/08/18 11:53:55;;;;;;;0.10;0.10;;;15.20;55.00;;;;;;5074662;28;20287;-59
2023/08/18 11:56:27;;;;;;;0.10;0.10;;;15.30;55.90;;;;;;5073494;28;20569;-59
2023/08/18 11:58:57;;;;;;;0.10;0.10;;;15.40;55.90;;;;;;5076159;28;20745;-59
2023/08/18 12:01:36;;;;;;;0.10;0.10;;;15.40;55.80;;;;;;5094365;28;20205;-58
2023/08/18 12:04:13;;;;;;;0.10;0.10;;;15.50;55.70;;;;;;5094409;28;20194;-57
2023/08/18 12:06:44;;;;;;;0.10;0.10;;;15.50;55.60;;;;;;5093942;28;20230;-59
2023/08/18 12:09:15;;;;;;;0.10;0.10;;;15.50;55.60;;;;;;5082503;28;20199;-59
2023/08/18 12:11:45;;;;;;;0.10;0.10;;;15.50;55.40;;;;;;5073988;28;20202;-59
2023/08/18 12:14:16;;;;;;;0.10;0.10;;;15.50;55.40;;;;;;5073700;28;20222;-59
2023/08/18 12:16:49;;;;;;;0.10;0.10;;;15.50;55.30;;;;;;5073328;28;20211;-59
2023/08/18 12:19:20;;;;;;;0.10;0.10;;;15.50;55.20;;;;;;5073443;28;20651;-59
2023/08/18 12:21:51;;;;;;;0.10;0.10;;;15.50;55.20;;;;;;5073241;28;20191;-59
2023/08/18 12:24:21;;;;;;;0.10;0.10;;;15.50;55.10;;;;;;5073579;28;20281;-59
2023/08/18 12:26:52;;;;;;;0.10;0.10;;;15.40;55.10;;;;;;5073706;28;20725;-59
2023/08/18 12:29:23;;;;;;;0.10;0.10;;;15.40;55.10;;;;;;5073537;28;20244;-59
2023/08/18 12:31:55;;;;;;;0.05;0.05;;;15.40;55.00;;;;;;5073657;28;20289;-59
2023/08/18 12:34:26;;;;;;;0.10;0.10;;;15.40;55.00;;;;;;5073657;28;20194;-57
2023/08/18 12:36:59;;;;;;;0.20;0.20;;;15.40;54.90;;;;;;5073699;28;20215;-59
2023/08/18 12:39:29;;;;;;;0.10;0.10;;;15.30;54.90;;;;;;5073913;28;20199;-59
2023/08/18 12:42:00;;;;;;;0.10;0.10;;;15.30;54.90;;;;;;5073450;28;20199;-58
2023/08/18 12:44:31;;;;;;;0.10;0.10;;;15.30;54.90;;;;;;5073609;28;20218;-58
2023/08/18 12:47:03;;;;;;;0.03;0.03;;;15.30;54.90;;;;;;5073208;28;20237;-58
2023/08/18 12:49:34;;;;;;;0.10;0.10;;;15.30;55.00;;;;;;5073056;28;20199;-59
2023/08/18 12:52:04;;;;;;;0.10;0.10;;;15.30;55.00;;;;;;5073795;28;20198;-57
2023/08/18 12:54:35;;;;;;;0.10;0.10;;;15.30;55.00;;;;;;5073326;28;20205;-59
2023/08/18 12:57:06;;;;;;;0.00;0.00;;;15.20;55.00;;;;;;5073244;28;20222;-59
2023/08/18 12:59:36;;;;;;;0.10;0.10;;;15.20;54.90;;;;;;5072954;28;20646;-58
2023/08/18 13:02:09;;;;;;;0.10;0.10;;;15.20;54.90;;;;;;5072306;28;20206;-59
2023/08/18 13:04:40;;;;;;;0.05;0.05;;;15.10;54.80;;;;;;5073057;28;20190;-59
2023/08/18 13:07:10;;;;;;;0.10;0.10;;;15.20;54.90;;;;;;5072728;28;20226;-58
2023/08/18 13:09:41;;;;;;;0.10;0.10;;;15.10;54.80;;;;;;5072939;28;20198;-59